sensor_id;sensor_type;location;lat;lon;timestamp;P1;durP1;ratioP1;P2;durP2;ratioP2
2123;SDS011;1068;52.460;13.528;2023-04-19T00:01:05;4.63;;;4.22;;
2123;SDS011;1068;52.460;13.528;2023-04-19T00:03:32;7.67;;;4.70;;
2123;SDS011;1068;52.460;13.528;2023-04-19T00:05:59;9.07;;;5.03;;
2123;SDS011;1068;52.460;13.528;2023-04-19T00:08:26;8.13;;;4.60;;
2123;SDS011;1068;52.460;13.528;2023-04-19T00:10:54;5.27;;;3.77;;
2123;SDS011;1068;52.460;13.528;2023-04-19T00:13:21;7.07;;;4.20;;
2123;SDS011;1068;52.460;13.528;2023-04-19T00:15:48;6.97;;;4.07;;
2123;SDS011;1068;52.460;13.528;2023-04-19T00:18:15;4.90;;;4.03;;
2123;SDS011;1068;52.460;13.528;2023-04-19T00:20:42;7.47;;;3.87;;
2123;SDS011;1068;52.460;13.528;2023-04-19T00:23:09;6.00;;;4.17;;
2123;SDS011;1068;52.460;13.528;2023-04-19T00:25:36;4.17;;;3.60;;
2123;SDS011;1068;52.460;13.528;2023-04-19T00:28:04;3.70;;;3.17;;
2123;SDS011;1068;52.460;13.528;2023-04-19T00:30:31;5.13;;;3.10;;
2123;SDS011;1068;52.460;13.528;2023-04-19T00:32:58;6.30;;;3.53;;
2123;SDS011;1068;52.460;13.528;2023-04-19T00:35:25;5.03;;;2.67;;
2123;SDS011;1068;52.460;13.528;2023-04-19T00:37:52;3.57;;;3.27;;
2123;SDS011;1068;52.460;13.528;2023-04-19T00:40:19;7.73;;;3.10;;
2123;SDS011;1068;52.460;13.528;2023-04-19T00:42:46;3.40;;;2.83;;
2123;SDS011;1068;52.460;13.528;2023-04-19T00:45:14;4.33;;;3.37;;
2123;SDS011;1068;52.460;13.528;2023-04-19T00:47:41;3.83;;;3.53;;
2123;SDS011;1068;52.460;13.528;2023-04-19T00:50:08;3.13;;;2.60;;
2123;SDS011;1068;52.460;13.528;2023-04-19T00:52:35;3.50;;;3.20;;
2123;SDS011;1068;52.460;13.528;2023-04-19T00:55:02;3.43;;;2.77;;
2123;SDS011;1068;52.460;13.528;2023-04-19T00:57:30;3.83;;;2.90;;
2123;SDS011;1068;52.460;13.528;2023-04-19T00:59:57;5.70;;;2.70;;
2123;SDS011;1068;52.460;13.528;2023-04-19T01:02:26;2.70;;;2.50;;
2123;SDS011;1068;52.460;13.528;2023-04-19T01:04:53;3.37;;;2.50;;
2123;SDS011;1068;52.460;13.528;2023-04-19T01:07:20;4.60;;;3.20;;
2123;SDS011;1068;52.460;13.528;2023-04-19T01:09:47;6.07;;;2.83;;
2123;SDS011;1068;52.460;13.528;2023-04-19T01:12:14;5.63;;;2.70;;
2123;SDS011;1068;52.460;13.528;2023-04-19T01:14:41;3.70;;;2.50;;
2123;SDS011;1068;52.460;13.528;2023-04-19T01:17:08;2.50;;;2.30;;
2123;SDS011;1068;52.460;13.528;2023-04-19T01:19:36;3.60;;;2.70;;
2123;SDS011;1068;52.460;13.528;2023-04-19T01:22:03;3.40;;;2.53;;
2123;SDS011;1068;52.460;13.528;2023-04-19T01:24:32;2.00;;;1.90;;
2123;SDS011;1068;52.460;13.528;2023-04-19T01:26:59;2.95;;;2.65;;
2123;SDS011;1068;52.460;13.528;2023-04-19T01:29:27;2.80;;;2.60;;
2123;SDS011;1068;52.460;13.528;2023-04-19T01:31:54;5.93;;;2.50;;
2123;SDS011;1068;52.460;13.528;2023-04-19T01:34:21;4.10;;;3.30;;
2123;SDS011;1068;52.460;13.528;2023-04-19T01:36:48;3.10;;;2.80;;
2123;SDS011;1068;52.460;13.528;2023-04-19T01:39:15;3.30;;;2.30;;
2123;SDS011;1068;52.460;13.528;2023-04-19T01:41:43;3.33;;;2.60;;
2123;SDS011;1068;52.460;13.528;2023-04-19T01:44:10;2.43;;;2.23;;
2123;SDS011;1068;52.460;13.528;2023-04-19T01:46:37;2.53;;;2.33;;
2123;SDS011;1068;52.460;13.528;2023-04-19T01:49:06;2.50;;;2.30;;
2123;SDS011;1068;52.460;13.528;2023-04-19T01:51:33;7.83;;;2.67;;
2123;SDS011;1068;52.460;13.528;2023-04-19T01:54:00;2.50;;;2.30;;
2123;SDS011;1068;52.460;13.528;2023-04-19T01:56:27;2.20;;;2.07;;
2123;SDS011;1068;52.460;13.528;2023-04-19T01:58:55;2.73;;;2.47;;
2123;SDS011;1068;52.460;13.528;2023-04-19T02:01:22;2.70;;;2.40;;
2123;SDS011;1068;52.460;13.528;2023-04-19T02:03:49;2.70;;;2.50;;
2123;SDS011;1068;52.460;13.528;2023-04-19T02:06:16;3.57;;;2.30;;
2123;SDS011;1068;52.460;13.528;2023-04-19T02:08:43;3.10;;;2.70;;
2123;SDS011;1068;52.460;13.528;2023-04-19T02:11:10;4.23;;;2.93;;
2123;SDS011;1068;52.460;13.528;2023-04-19T02:13:38;2.97;;;2.03;;
2123;SDS011;1068;52.460;13.528;2023-04-19T02:16:07;2.93;;;2.70;;
2123;SDS011;1068;52.460;13.528;2023-04-19T02:18:34;3.43;;;2.30;;
2123;SDS011;1068;52.460;13.528;2023-04-19T02:21:03;2.70;;;2.40;;
2123;SDS011;1068;52.460;13.528;2023-04-19T02:23:30;3.20;;;2.90;;
2123;SDS011;1068;52.460;13.528;2023-04-19T02:25:57;5.23;;;2.30;;
2123;SDS011;1068;52.460;13.528;2023-04-19T02:28:25;3.20;;;2.67;;
2123;SDS011;1068;52.460;13.528;2023-04-19T02:30:52;3.27;;;2.90;;
2123;SDS011;1068;52.460;13.528;2023-04-19T02:33:20;2.97;;;2.77;;
2123;SDS011;1068;52.460;13.528;2023-04-19T02:35:48;3.13;;;2.83;;
2123;SDS011;1068;52.460;13.528;2023-04-19T02:38:14;4.40;;;2.73;;
2123;SDS011;1068;52.460;13.528;2023-04-19T02:40:42;2.83;;;2.63;;
2123;SDS011;1068;52.460;13.528;2023-04-19T02:43:08;4.40;;;2.90;;
2123;SDS011;1068;52.460;13.528;2023-04-19T02:45:35;6.32;;;3.10;;
2123;SDS011;1068;52.460;13.528;2023-04-19T02:48:02;3.10;;;2.80;;
2123;SDS011;1068;52.460;13.528;2023-04-19T02:50:31;4.00;;;3.00;;
2123;SDS011;1068;52.460;13.528;2023-04-19T02:52:58;2.78;;;2.53;;
2123;SDS011;1068;52.460;13.528;2023-04-19T02:55:25;5.82;;;2.85;;
2123;SDS011;1068;52.460;13.528;2023-04-19T02:57:52;9.63;;;3.13;;
2123;SDS011;1068;52.460;13.528;2023-04-19T03:00:19;3.35;;;3.03;;
2123;SDS011;1068;52.460;13.528;2023-04-19T03:02:45;2.60;;;2.40;;
2123;SDS011;1068;52.460;13.528;2023-04-19T03:05:12;5.90;;;3.20;;
2123;SDS011;1068;52.460;13.528;2023-04-19T03:07:41;4.20;;;3.58;;
2123;SDS011;1068;52.460;13.528;2023-04-19T03:10:08;14.02;;;3.40;;
2123;SDS011;1068;52.460;13.528;2023-04-19T03:12:35;4.30;;;2.90;;
2123;SDS011;1068;52.460;13.528;2023-04-19T03:15:02;4.68;;;2.67;;
2123;SDS011;1068;52.460;13.528;2023-04-19T03:17:29;4.83;;;3.40;;
2123;SDS011;1068;52.460;13.528;2023-04-19T03:19:56;2.80;;;2.60;;
2123;SDS011;1068;52.460;13.528;2023-04-19T03:22:23;3.13;;;2.67;;
2123;SDS011;1068;52.460;13.528;2023-04-19T03:24:51;3.55;;;2.80;;
2123;SDS011;1068;52.460;13.528;2023-04-19T03:27:18;3.58;;;2.70;;
2123;SDS011;1068;52.460;13.528;2023-04-19T03:29:45;6.30;;;3.53;;
2123;SDS011;1068;52.460;13.528;2023-04-19T03:32:12;4.40;;;3.05;;
2123;SDS011;1068;52.460;13.528;2023-04-19T03:34:39;5.22;;;3.10;;
2123;SDS011;1068;52.460;13.528;2023-04-19T03:37:06;5.60;;;2.72;;
2123;SDS011;1068;52.460;13.528;2023-04-19T03:39:33;2.88;;;2.60;;
2123;SDS011;1068;52.460;13.528;2023-04-19T03:42:01;3.45;;;3.13;;
2123;SDS011;1068;52.460;13.528;2023-04-19T03:44:30;2.83;;;2.63;;
2123;SDS011;1068;52.460;13.528;2023-04-19T03:46:57;4.00;;;3.23;;
2123;SDS011;1068;52.460;13.528;2023-04-19T03:49:24;3.55;;;2.70;;
2123;SDS011;1068;52.460;13.528;2023-04-19T03:51:51;5.63;;;2.55;;
2123;SDS011;1068;52.460;13.528;2023-04-19T03:54:18;4.90;;;3.38;;
2123;SDS011;1068;52.460;13.528;2023-04-19T03:56:45;8.80;;;3.00;;
2123;SDS011;1068;52.460;13.528;2023-04-19T03:59:13;5.33;;;2.90;;
2123;SDS011;1068;52.460;13.528;2023-04-19T04:01:40;8.50;;;3.00;;
2123;SDS011;1068;52.460;13.528;2023-04-19T04:04:07;7.63;;;2.83;;
2123;SDS011;1068;52.460;13.528;2023-04-19T04:06:34;4.13;;;2.75;;
2123;SDS011;1068;52.460;13.528;2023-04-19T04:09:01;6.22;;;2.55;;
2123;SDS011;1068;52.460;13.528;2023-04-19T04:11:28;6.53;;;2.83;;
2123;SDS011;1068;52.460;13.528;2023-04-19T04:13:55;5.15;;;2.63;;
2123;SDS011;1068;52.460;13.528;2023-04-19T04:16:23;3.25;;;2.72;;
2123;SDS011;1068;52.460;13.528;2023-04-19T04:18:50;2.90;;;2.22;;
2123;SDS011;1068;52.460;13.528;2023-04-19T04:21:17;2.83;;;2.50;;
2123;SDS011;1068;52.460;13.528;2023-04-19T04:23:44;9.52;;;2.75;;
2123;SDS011;1068;52.460;13.528;2023-04-19T04:26:13;6.68;;;2.45;;
2123;SDS011;1068;52.460;13.528;2023-04-19T04:28:40;2.28;;;2.17;;
2123;SDS011;1068;52.460;13.528;2023-04-19T04:31:07;4.90;;;2.63;;
2123;SDS011;1068;52.460;13.528;2023-04-19T04:33:37;7.80;;;2.60;;
2123;SDS011;1068;52.460;13.528;2023-04-19T04:36:05;2.70;;;2.40;;
2123;SDS011;1068;52.460;13.528;2023-04-19T04:38:35;5.03;;;2.40;;
2123;SDS011;1068;52.460;13.528;2023-04-19T04:41:02;2.70;;;2.50;;
2123;SDS011;1068;52.460;13.528;2023-04-19T04:43:29;4.00;;;2.30;;
2123;SDS011;1068;52.460;13.528;2023-04-19T04:45:57;5.17;;;2.63;;
2123;SDS011;1068;52.460;13.528;2023-04-19T04:48:25;2.90;;;2.20;;
2123;SDS011;1068;52.460;13.528;2023-04-19T04:50:53;2.37;;;2.10;;
2123;SDS011;1068;52.460;13.528;2023-04-19T04:53:20;2.60;;;2.20;;
2123;SDS011;1068;52.460;13.528;2023-04-19T04:55:47;4.50;;;2.53;;
2123;SDS011;1068;52.460;13.528;2023-04-19T04:58:14;2.88;;;2.25;;
2123;SDS011;1068;52.460;13.528;2023-04-19T05:00:41;3.93;;;2.87;;
2123;SDS011;1068;52.460;13.528;2023-04-19T05:03:07;4.32;;;2.28;;
2123;SDS011;1068;52.460;13.528;2023-04-19T05:05:35;2.88;;;2.33;;
2123;SDS011;1068;52.460;13.528;2023-04-19T05:08:03;2.83;;;2.00;;
2123;SDS011;1068;52.460;13.528;2023-04-19T05:10:31;3.78;;;2.00;;
2123;SDS011;1068;52.460;13.528;2023-04-19T05:12:57;3.87;;;2.30;;
2123;SDS011;1068;52.460;13.528;2023-04-19T05:15:24;4.57;;;2.40;;
2123;SDS011;1068;52.460;13.528;2023-04-19T05:17:51;3.08;;;2.40;;
2123;SDS011;1068;52.460;13.528;2023-04-19T05:20:18;5.13;;;2.83;;
2123;SDS011;1068;52.460;13.528;2023-04-19T05:22:45;6.47;;;2.05;;
2123;SDS011;1068;52.460;13.528;2023-04-19T05:25:13;3.85;;;2.38;;
2123;SDS011;1068;52.460;13.528;2023-04-19T05:27:40;2.83;;;2.40;;
2123;SDS011;1068;52.460;13.528;2023-04-19T05:30:07;5.32;;;2.42;;
2123;SDS011;1068;52.460;13.528;2023-04-19T05:32:34;6.88;;;2.10;;
2123;SDS011;1068;52.460;13.528;2023-04-19T05:35:01;4.57;;;2.43;;
2123;SDS011;1068;52.460;13.528;2023-04-19T05:37:28;2.63;;;2.08;;
2123;SDS011;1068;52.460;13.528;2023-04-19T05:39:55;3.60;;;1.75;;
2123;SDS011;1068;52.460;13.528;2023-04-19T05:42:24;2.40;;;2.20;;
2123;SDS011;1068;52.460;13.528;2023-04-19T05:44:51;5.57;;;2.90;;
2123;SDS011;1068;52.460;13.528;2023-04-19T05:47:18;3.78;;;2.28;;
2123;SDS011;1068;52.460;13.528;2023-04-19T05:49:45;2.40;;;1.83;;
2123;SDS011;1068;52.460;13.528;2023-04-19T05:52:12;2.07;;;1.87;;
2123;SDS011;1068;52.460;13.528;2023-04-19T05:54:39;2.40;;;1.60;;
2123;SDS011;1068;52.460;13.528;2023-04-19T05:57:06;2.60;;;1.70;;
2123;SDS011;1068;52.460;13.528;2023-04-19T05:59:34;2.87;;;2.03;;
2123;SDS011;1068;52.460;13.528;2023-04-19T06:02:01;6.70;;;2.13;;
2123;SDS011;1068;52.460;13.528;2023-04-19T06:04:28;3.50;;;2.50;;
2123;SDS011;1068;52.460;13.528;2023-04-19T06:06:55;6.63;;;2.77;;
2123;SDS011;1068;52.460;13.528;2023-04-19T06:09:22;2.60;;;2.00;;
2123;SDS011;1068;52.460;13.528;2023-04-19T06:11:49;3.90;;;2.00;;
2123;SDS011;1068;52.460;13.528;2023-04-19T06:14:18;5.63;;;2.10;;
2123;SDS011;1068;52.460;13.528;2023-04-19T06:16:46;4.47;;;2.03;;
2123;SDS011;1068;52.460;13.528;2023-04-19T06:19:13;3.60;;;1.97;;
2123;SDS011;1068;52.460;13.528;2023-04-19T06:21:40;3.20;;;2.33;;
2123;SDS011;1068;52.460;13.528;2023-04-19T06:24:07;3.87;;;2.00;;
2123;SDS011;1068;52.460;13.528;2023-04-19T06:26:34;6.53;;;2.20;;
2123;SDS011;1068;52.460;13.528;2023-04-19T06:29:01;6.00;;;1.90;;
2123;SDS011;1068;52.460;13.528;2023-04-19T06:31:29;5.53;;;2.77;;
2123;SDS011;1068;52.460;13.528;2023-04-19T06:33:57;6.60;;;2.20;;
2123;SDS011;1068;52.460;13.528;2023-04-19T06:36:24;6.70;;;2.30;;
2123;SDS011;1068;52.460;13.528;2023-04-19T06:38:51;7.93;;;2.00;;
2123;SDS011;1068;52.460;13.528;2023-04-19T06:41:18;3.50;;;2.13;;
2123;SDS011;1068;52.460;13.528;2023-04-19T06:43:45;4.37;;;1.80;;
2123;SDS011;1068;52.460;13.528;2023-04-19T06:46:12;2.77;;;2.00;;
2123;SDS011;1068;52.460;13.528;2023-04-19T06:48:39;4.40;;;1.83;;
2123;SDS011;1068;52.460;13.528;2023-04-19T06:51:08;5.80;;;1.83;;
2123;SDS011;1068;52.460;13.528;2023-04-19T06:53:35;8.37;;;2.13;;
2123;SDS011;1068;52.460;13.528;2023-04-19T06:56:02;2.10;;;1.90;;
2123;SDS011;1068;52.460;13.528;2023-04-19T06:58:30;9.90;;;2.07;;
2123;SDS011;1068;52.460;13.528;2023-04-19T07:00:57;3.13;;;1.80;;
2123;SDS011;1068;52.460;13.528;2023-04-19T07:03:25;2.80;;;2.50;;
2123;SDS011;1068;52.460;13.528;2023-04-19T07:05:52;4.03;;;2.00;;
2123;SDS011;1068;52.460;13.528;2023-04-19T07:08:21;27.10;;;5.43;;
2123;SDS011;1068;52.460;13.528;2023-04-19T07:10:48;5.23;;;2.50;;
2123;SDS011;1068;52.460;13.528;2023-04-19T07:13:15;5.00;;;2.00;;
2123;SDS011;1068;52.460;13.528;2023-04-19T07:15:42;2.80;;;1.70;;
2123;SDS011;1068;52.460;13.528;2023-04-19T07:18:09;3.03;;;2.00;;
2123;SDS011;1068;52.460;13.528;2023-04-19T07:20:38;1.93;;;1.73;;
2123;SDS011;1068;52.460;13.528;2023-04-19T07:23:08;8.43;;;2.93;;
2123;SDS011;1068;52.460;13.528;2023-04-19T07:25:37;2.33;;;1.70;;
2123;SDS011;1068;52.460;13.528;2023-04-19T07:28:04;3.20;;;1.73;;
2123;SDS011;1068;52.460;13.528;2023-04-19T07:30:31;2.00;;;1.80;;
2123;SDS011;1068;52.460;13.528;2023-04-19T07:32:58;6.20;;;1.90;;
2123;SDS011;1068;52.460;13.528;2023-04-19T07:35:28;3.17;;;1.87;;
2123;SDS011;1068;52.460;13.528;2023-04-19T07:37:55;2.70;;;1.57;;
2123;SDS011;1068;52.460;13.528;2023-04-19T07:40:22;3.60;;;2.10;;
2123;SDS011;1068;52.460;13.528;2023-04-19T07:42:50;2.60;;;1.77;;
2123;SDS011;1068;52.460;13.528;2023-04-19T07:45:17;2.13;;;1.83;;
2123;SDS011;1068;52.460;13.528;2023-04-19T07:47:44;2.70;;;1.60;;
2123;SDS011;1068;52.460;13.528;2023-04-19T07:50:11;2.20;;;1.80;;
2123;SDS011;1068;52.460;13.528;2023-04-19T07:52:38;2.70;;;2.27;;
2123;SDS011;1068;52.460;13.528;2023-04-19T07:55:05;2.73;;;1.93;;
2123;SDS011;1068;52.460;13.528;2023-04-19T07:57:33;4.33;;;1.80;;
2123;SDS011;1068;52.460;13.528;2023-04-19T08:00:01;5.97;;;2.30;;
2123;SDS011;1068;52.460;13.528;2023-04-19T08:02:28;5.43;;;2.20;;
2123;SDS011;1068;52.460;13.528;2023-04-19T08:04:55;3.67;;;2.30;;
2123;SDS011;1068;52.460;13.528;2023-04-19T08:07:22;3.00;;;2.53;;
2123;SDS011;1068;52.460;13.528;2023-04-19T08:09:50;6.17;;;2.57;;
2123;SDS011;1068;52.460;13.528;2023-04-19T08:12:17;5.40;;;2.13;;
2123;SDS011;1068;52.460;13.528;2023-04-19T08:14:43;3.90;;;2.27;;
2123;SDS011;1068;52.460;13.528;2023-04-19T08:17:12;8.90;;;2.77;;
2123;SDS011;1068;52.460;13.528;2023-04-19T08:19:41;5.30;;;3.03;;
2123;SDS011;1068;52.460;13.528;2023-04-19T08:22:08;2.63;;;2.43;;
2123;SDS011;1068;52.460;13.528;2023-04-19T08:24:35;5.13;;;2.93;;
2123;SDS011;1068;52.460;13.528;2023-04-19T08:27:02;2.60;;;2.03;;
2123;SDS011;1068;52.460;13.528;2023-04-19T08:29:29;2.83;;;2.63;;
2123;SDS011;1068;52.460;13.528;2023-04-19T08:31:57;6.40;;;2.70;;
2123;SDS011;1068;52.460;13.528;2023-04-19T08:34:26;3.97;;;2.70;;
2123;SDS011;1068;52.460;13.528;2023-04-19T08:36:53;8.10;;;2.97;;
2123;SDS011;1068;52.460;13.528;2023-04-19T08:39:20;7.57;;;2.80;;
2123;SDS011;1068;52.460;13.528;2023-04-19T08:41:48;4.00;;;2.30;;
2123;SDS011;1068;52.460;13.528;2023-04-19T08:44:15;4.47;;;2.60;;
2123;SDS011;1068;52.460;13.528;2023-04-19T08:46:42;6.60;;;2.83;;
2123;SDS011;1068;52.460;13.528;2023-04-19T08:49:10;3.20;;;2.30;;
2123;SDS011;1068;52.460;13.528;2023-04-19T08:51:38;4.80;;;2.50;;
2123;SDS011;1068;52.460;13.528;2023-04-19T08:54:06;3.83;;;2.37;;
2123;SDS011;1068;52.460;13.528;2023-04-19T08:56:34;2.53;;;2.23;;
2123;SDS011;1068;52.460;13.528;2023-04-19T08:59:01;3.43;;;2.50;;
2123;SDS011;1068;52.460;13.528;2023-04-19T09:01:28;7.07;;;2.60;;
2123;SDS011;1068;52.460;13.528;2023-04-19T09:03:55;4.10;;;2.30;;
2123;SDS011;1068;52.460;13.528;2023-04-19T09:06:22;6.80;;;2.67;;
2123;SDS011;1068;52.460;13.528;2023-04-19T09:08:51;4.30;;;2.43;;
2123;SDS011;1068;52.460;13.528;2023-04-19T09:11:26;7.73;;;2.67;;
2123;SDS011;1068;52.460;13.528;2023-04-19T09:14:06;5.10;;;2.60;;
2123;SDS011;1068;52.460;13.528;2023-04-19T09:16:33;6.23;;;3.20;;
2123;SDS011;1068;52.460;13.528;2023-04-19T09:19:01;7.40;;;2.53;;
2123;SDS011;1068;52.460;13.528;2023-04-19T09:21:29;5.47;;;3.03;;
2123;SDS011;1068;52.460;13.528;2023-04-19T09:23:57;3.00;;;2.70;;
2123;SDS011;1068;52.460;13.528;2023-04-19T09:26:25;4.03;;;2.20;;
2123;SDS011;1068;52.460;13.528;2023-04-19T09:28:57;3.97;;;2.53;;
2123;SDS011;1068;52.460;13.528;2023-04-19T09:31:24;7.73;;;3.30;;
2123;SDS011;1068;52.460;13.528;2023-04-19T09:33:52;5.63;;;2.90;;
2123;SDS011;1068;52.460;13.528;2023-04-19T09:36:26;3.83;;;2.53;;
2123;SDS011;1068;52.460;13.528;2023-04-19T09:38:53;3.70;;;2.97;;
2123;SDS011;1068;52.460;13.528;2023-04-19T09:41:21;3.20;;;2.83;;
2123;SDS011;1068;52.460;13.528;2023-04-19T09:43:48;4.50;;;2.90;;
2123;SDS011;1068;52.460;13.528;2023-04-19T09:46:28;2.63;;;2.17;;
2123;SDS011;1068;52.460;13.528;2023-04-19T09:48:58;3.30;;;2.77;;
2123;SDS011;1068;52.460;13.528;2023-04-19T09:51:40;5.10;;;3.30;;
2123;SDS011;1068;52.460;13.528;2023-04-19T09:54:08;3.30;;;2.50;;
2123;SDS011;1068;52.460;13.528;2023-04-19T09:56:37;5.20;;;3.03;;
2123;SDS011;1068;52.460;13.528;2023-04-19T09:59:04;3.40;;;2.43;;
2123;SDS011;1068;52.460;13.528;2023-04-19T10:01:32;4.40;;;2.80;;
2123;SDS011;1068;52.460;13.528;2023-04-19T10:04:00;3.03;;;2.70;;
2123;SDS011;1068;52.460;13.528;2023-04-19T10:06:30;10.10;;;4.57;;
2123;SDS011;1068;52.460;13.528;2023-04-19T10:08:57;2.73;;;2.50;;
2123;SDS011;1068;52.460;13.528;2023-04-19T10:11:28;2.70;;;2.50;;
2123;SDS011;1068;52.460;13.528;2023-04-19T10:14:01;4.10;;;2.60;;
2123;SDS011;1068;52.460;13.528;2023-04-19T10:16:29;4.63;;;2.73;;
2123;SDS011;1068;52.460;13.528;2023-04-19T10:18:56;3.37;;;2.87;;
2123;SDS011;1068;52.460;13.528;2023-04-19T10:21:24;3.00;;;2.80;;
2123;SDS011;1068;52.460;13.528;2023-04-19T10:23:52;2.57;;;2.33;;
2123;SDS011;1068;52.460;13.528;2023-04-19T10:26:19;3.80;;;2.73;;
2123;SDS011;1068;52.460;13.528;2023-04-19T10:28:47;3.57;;;2.67;;
2123;SDS011;1068;52.460;13.528;2023-04-19T10:31:15;5.20;;;2.90;;
2123;SDS011;1068;52.460;13.528;2023-04-19T10:33:47;5.83;;;2.73;;
2123;SDS011;1068;52.460;13.528;2023-04-19T10:36:14;4.90;;;2.73;;
2123;SDS011;1068;52.460;13.528;2023-04-19T10:38:43;3.60;;;3.20;;
2123;SDS011;1068;52.460;13.528;2023-04-19T10:41:11;7.73;;;3.27;;
2123;SDS011;1068;52.460;13.528;2023-04-19T10:43:39;4.80;;;2.90;;
2123;SDS011;1068;52.460;13.528;2023-04-19T10:46:07;5.47;;;3.13;;
2123;SDS011;1068;52.460;13.528;2023-04-19T10:48:39;3.10;;;2.77;;
2123;SDS011;1068;52.460;13.528;2023-04-19T10:51:11;4.70;;;2.93;;
2123;SDS011;1068;52.460;13.528;2023-04-19T10:53:43;3.70;;;2.87;;
2123;SDS011;1068;52.460;13.528;2023-04-19T10:56:10;8.83;;;3.50;;
2123;SDS011;1068;52.460;13.528;2023-04-19T11:01:30;2.90;;;2.60;;
2123;SDS011;1068;52.460;13.528;2023-04-19T11:03:59;6.40;;;3.40;;
2123;SDS011;1068;52.460;13.528;2023-04-19T11:06:25;5.30;;;2.73;;
2123;SDS011;1068;52.460;13.528;2023-04-19T11:08:52;2.90;;;2.70;;
2123;SDS011;1068;52.460;13.528;2023-04-19T11:11:19;3.60;;;3.30;;
2123;SDS011;1068;52.460;13.528;2023-04-19T11:13:47;3.63;;;2.60;;
2123;SDS011;1068;52.460;13.528;2023-04-19T11:16:14;6.87;;;3.20;;
2123;SDS011;1068;52.460;13.528;2023-04-19T11:18:42;5.07;;;3.50;;
2123;SDS011;1068;52.460;13.528;2023-04-19T11:21:12;4.77;;;3.70;;
2123;SDS011;1068;52.460;13.528;2023-04-19T11:23:40;4.23;;;3.30;;
2123;SDS011;1068;52.460;13.528;2023-04-19T11:26:08;5.07;;;3.07;;
2123;SDS011;1068;52.460;13.528;2023-04-19T11:28:36;5.77;;;3.30;;
2123;SDS011;1068;52.460;13.528;2023-04-19T11:31:03;4.33;;;3.23;;
2123;SDS011;1068;52.460;13.528;2023-04-19T11:33:31;3.40;;;3.10;;
2123;SDS011;1068;52.460;13.528;2023-04-19T11:35:58;6.93;;;3.40;;
2123;SDS011;1068;52.460;13.528;2023-04-19T11:38:27;3.67;;;2.83;;
2123;SDS011;1068;52.460;13.528;2023-04-19T11:40:58;5.50;;;3.50;;
2123;SDS011;1068;52.460;13.528;2023-04-19T11:43:30;2.93;;;2.60;;
2123;SDS011;1068;52.460;13.528;2023-04-19T11:46:03;3.00;;;2.70;;
2123;SDS011;1068;52.460;13.528;2023-04-19T11:48:31;6.10;;;3.47;;
2123;SDS011;1068;52.460;13.528;2023-04-19T11:50:58;4.10;;;2.80;;
2123;SDS011;1068;52.460;13.528;2023-04-19T11:53:25;5.00;;;2.80;;
2123;SDS011;1068;52.460;13.528;2023-04-19T11:55:55;3.67;;;2.80;;
2123;SDS011;1068;52.460;13.528;2023-04-19T11:58:26;4.80;;;2.53;;
2123;SDS011;1068;52.460;13.528;2023-04-19T12:00:53;3.93;;;3.27;;
2123;SDS011;1068;52.460;13.528;2023-04-19T12:03:22;5.53;;;3.00;;
2123;SDS011;1068;52.460;13.528;2023-04-19T12:05:52;2.80;;;2.60;;
2123;SDS011;1068;52.460;13.528;2023-04-19T12:08:28;3.37;;;3.07;;
2123;SDS011;1068;52.460;13.528;2023-04-19T12:10:57;3.33;;;3.03;;
2123;SDS011;1068;52.460;13.528;2023-04-19T12:13:25;4.20;;;2.80;;
2123;SDS011;1068;52.460;13.528;2023-04-19T12:15:52;5.20;;;2.80;;
2123;SDS011;1068;52.460;13.528;2023-04-19T12:18:19;2.70;;;2.47;;
2123;SDS011;1068;52.460;13.528;2023-04-19T12:20:46;4.10;;;2.73;;
2123;SDS011;1068;52.460;13.528;2023-04-19T12:23:13;3.83;;;2.90;;
2123;SDS011;1068;52.460;13.528;2023-04-19T12:25:40;4.40;;;2.77;;
2123;SDS011;1068;52.460;13.528;2023-04-19T12:28:09;6.23;;;2.60;;
2123;SDS011;1068;52.460;13.528;2023-04-19T12:30:36;3.50;;;2.60;;
2123;SDS011;1068;52.460;13.528;2023-04-19T12:33:03;5.55;;;3.05;;
2123;SDS011;1068;52.460;13.528;2023-04-19T12:35:31;3.72;;;2.90;;
2123;SDS011;1068;52.460;13.528;2023-04-19T12:37:59;2.97;;;2.77;;
2123;SDS011;1068;52.460;13.528;2023-04-19T12:40:26;6.97;;;3.13;;
2123;SDS011;1068;52.460;13.528;2023-04-19T12:42:53;4.60;;;3.10;;
2123;SDS011;1068;52.460;13.528;2023-04-19T12:45:22;5.10;;;3.10;;
2123;SDS011;1068;52.460;13.528;2023-04-19T12:47:49;4.40;;;3.25;;
2123;SDS011;1068;52.460;13.528;2023-04-19T12:50:16;4.38;;;3.40;;
2123;SDS011;1068;52.460;13.528;2023-04-19T12:52:43;8.03;;;2.33;;
2123;SDS011;1068;52.460;13.528;2023-04-19T12:55:10;3.33;;;3.03;;
2123;SDS011;1068;52.460;13.528;2023-04-19T12:57:37;3.27;;;2.97;;
2123;SDS011;1068;52.460;13.528;2023-04-19T13:00:06;3.57;;;3.10;;
2123;SDS011;1068;52.460;13.528;2023-04-19T13:02:36;4.43;;;2.77;;
2123;SDS011;1068;52.460;13.528;2023-04-19T13:05:03;5.83;;;3.47;;
2123;SDS011;1068;52.460;13.528;2023-04-19T13:07:30;4.90;;;3.50;;
2123;SDS011;1068;52.460;13.528;2023-04-19T13:09:57;4.70;;;3.40;;
2123;SDS011;1068;52.460;13.528;2023-04-19T13:12:24;3.73;;;3.43;;
2123;SDS011;1068;52.460;13.528;2023-04-19T13:14:51;5.70;;;3.13;;
2123;SDS011;1068;52.460;13.528;2023-04-19T13:17:18;6.50;;;2.80;;
2123;SDS011;1068;52.460;13.528;2023-04-19T13:19:47;4.73;;;3.67;;
2123;SDS011;1068;52.460;13.528;2023-04-19T13:22:15;5.17;;;3.30;;
2123;SDS011;1068;52.460;13.528;2023-04-19T13:24:41;6.07;;;3.37;;
2123;SDS011;1068;52.460;13.528;2023-04-19T13:27:08;3.83;;;3.50;;
2123;SDS011;1068;52.460;13.528;2023-04-19T13:29:35;3.40;;;3.20;;
2123;SDS011;1068;52.460;13.528;2023-04-19T13:32:03;3.57;;;3.13;;
2123;SDS011;1068;52.460;13.528;2023-04-19T13:34:31;9.67;;;4.23;;
2123;SDS011;1068;52.460;13.528;2023-04-19T13:36:59;6.97;;;4.03;;
2123;SDS011;1068;52.460;13.528;2023-04-19T13:39:26;8.57;;;3.37;;
2123;SDS011;1068;52.460;13.528;2023-04-19T13:41:53;6.17;;;5.43;;
2123;SDS011;1068;52.460;13.528;2023-04-19T13:44:20;8.13;;;4.30;;
2123;SDS011;1068;52.460;13.528;2023-04-19T13:46:49;9.30;;;4.43;;
2123;SDS011;1068;52.460;13.528;2023-04-19T13:49:16;5.07;;;3.37;;
2123;SDS011;1068;52.460;13.528;2023-04-19T13:51:43;5.40;;;2.80;;
2123;SDS011;1068;52.460;13.528;2023-04-19T13:54:11;5.30;;;3.30;;
2123;SDS011;1068;52.460;13.528;2023-04-19T13:56:38;4.13;;;3.10;;
2123;SDS011;1068;52.460;13.528;2023-04-19T13:59:05;4.30;;;3.80;;
2123;SDS011;1068;52.460;13.528;2023-04-19T14:01:32;4.50;;;4.10;;
2123;SDS011;1068;52.460;13.528;2023-04-19T14:03:59;3.73;;;3.20;;
2123;SDS011;1068;52.460;13.528;2023-04-19T14:06:26;4.67;;;4.10;;
2123;SDS011;1068;52.460;13.528;2023-04-19T14:08:53;3.90;;;3.50;;
2123;SDS011;1068;52.460;13.528;2023-04-19T14:11:21;6.73;;;4.27;;
2123;SDS011;1068;52.460;13.528;2023-04-19T14:13:49;4.40;;;4.00;;
2123;SDS011;1068;52.460;13.528;2023-04-19T14:16:15;4.20;;;3.80;;
2123;SDS011;1068;52.460;13.528;2023-04-19T14:18:42;5.50;;;4.37;;
2123;SDS011;1068;52.460;13.528;2023-04-19T14:21:10;4.73;;;4.23;;
2123;SDS011;1068;52.460;13.528;2023-04-19T14:23:36;4.73;;;3.80;;
2123;SDS011;1068;52.460;13.528;2023-04-19T14:26:03;4.80;;;4.30;;
2123;SDS011;1068;52.460;13.528;2023-04-19T14:28:32;4.00;;;3.70;;
2123;SDS011;1068;52.460;13.528;2023-04-19T14:30:59;4.50;;;4.10;;
2123;SDS011;1068;52.460;13.528;2023-04-19T14:33:26;4.83;;;4.20;;
2123;SDS011;1068;52.460;13.528;2023-04-19T14:35:53;5.10;;;3.70;;
2123;SDS011;1068;52.460;13.528;2023-04-19T14:38:20;4.43;;;4.07;;
2123;SDS011;1068;52.460;13.528;2023-04-19T14:40:47;4.33;;;3.80;;
2123;SDS011;1068;52.460;13.528;2023-04-19T14:43:14;11.90;;;10.73;;
2123;SDS011;1068;52.460;13.528;2023-04-19T14:45:43;7.67;;;6.57;;
2123;SDS011;1068;52.460;13.528;2023-04-19T14:48:10;6.03;;;5.50;;
2123;SDS011;1068;52.460;13.528;2023-04-19T14:50:37;4.83;;;4.33;;
2123;SDS011;1068;52.460;13.528;2023-04-19T14:53:03;4.27;;;3.87;;
2123;SDS011;1068;52.460;13.528;2023-04-19T14:55:30;6.43;;;5.80;;
2123;SDS011;1068;52.460;13.528;2023-04-19T14:57:57;7.80;;;4.73;;
2123;SDS011;1068;52.460;13.528;2023-04-19T15:00:25;5.63;;;4.47;;
2123;SDS011;1068;52.460;13.528;2023-04-19T15:02:54;9.10;;;5.20;;
2123;SDS011;1068;52.460;13.528;2023-04-19T15:05:21;8.50;;;4.77;;